Time;durP1;ratioP1;P1;durP2;ratioP2;P2;SDS_P1;SDS_P2;PMS_P1;PMS_P2;Temp;Humidity;BMP_temperature;BMP_pressure;BME280_temperature;BME280_humidity;BME280_pressure;Samples;Min_cycle;Max_cycle;Signal;HPM_P1;HPM_P2
2021/03/01 03:45:45;;;;;;;26.85;15.35;;;6.50;69.90;;;;;;5683978;23;20060;-71
2021/03/01 03:48:12;;;;;;;28.33;15.68;;;6.50;70.10;;;;;;4887972;29;20025;-71
2021/03/01 03:50:39;;;;;;;29.35;15.30;;;6.60;70.00;;;;;;4889065;29;20024;-71
2021/03/01 03:53:12;;;;;;;34.20;15.75;;;6.60;69.70;;;;;;4889156;29;20108;-71
2021/03/01 03:55:41;;;;;;;32.20;16.02;;;6.60;69.70;;;;;;4874680;29;20032;-71
2021/03/01 03:58:10;;;;;;;30.25;16.60;;;6.60;69.60;;;;;;4870530;29;20037;-71
2021/03/01 04:00:37;;;;;;;32.03;17.70;;;6.60;69.60;;;;;;4869480;29;20025;-73
2021/03/01 04:03:10;;;;;;;;;;;6.60;69.50;;;;;;4870905;29;20088;-71
2021/03/01 04:05:43;;;;;;;30.90;17.48;;;6.60;69.50;;;;;;4870421;29;19916;-71
2021/03/01 04:08:12;;;;;;;31.08;16.27;;;6.60;69.40;;;;;;4870331;29;20266;-71
2021/03/01 04:10:41;;;;;;;29.55;16.55;;;6.60;69.50;;;;;;4884447;29;20329;-71
2021/03/01 04:13:08;;;;;;;33.67;17.50;;;6.50;69.70;;;;;;4869069;29;20037;-71
2021/03/01 04:15:36;;;;;;;30.77;17.75;;;6.50;69.70;;;;;;4873066;29;20124;-71
2021/03/01 04:18:04;;;;;;;37.00;18.60;;;6.50;69.80;;;;;;4906347;29;20071;-72
2021/03/01 04:20:34;;;;;;;29.50;16.88;;;6.50;69.90;;;;;;4891035;29;20202;-71
2021/03/01 04:23:01;;;;;;;32.22;17.67;;;6.50;69.90;;;;;;4906500;29;20029;-71
2021/03/01 04:25:28;;;;;;;35.27;18.80;;;6.40;70.00;;;;;;4906260;29;20024;-71
2021/03/01 04:27:53;;;;;;;;;;;6.40;69.90;;;;;;4896549;29;20029;-73
2021/03/01 04:30:20;;;;;;;35.23;18.80;;;6.40;70.20;;;;;;4887823;29;20195;-71
2021/03/01 04:32:47;;;;;;;37.90;19.92;;;6.40;70.20;;;;;;4886894;29;20041;-71
2021/03/01 04:35:16;;;;;;;33.55;18.55;;;6.40;70.40;;;;;;4887623;29;20033;-71
2021/03/01 04:37:42;;;;;;;35.05;19.65;;;6.30;70.40;;;;;;4887441;29;20036;-71
2021/03/01 04:40:08;;;;;;;32.72;18.25;;;6.30;70.50;;;;;;4887753;29;20028;-72
2021/03/01 04:42:36;;;;;;;38.58;20.25;;;6.40;70.50;;;;;;4888625;29;20079;-73
2021/03/01 04:45:04;;;;;;;36.17;19.20;;;6.30;70.40;;;;;;4888829;29;20017;-71
2021/03/01 04:47:30;;;;;;;39.33;20.02;;;6.40;70.60;;;;;;4904610;29;20115;-71
2021/03/01 04:49:58;;;;;;;37.97;20.43;;;6.30;70.80;;;;;;4907419;29;20056;-71
2021/03/01 04:52:25;;;;;;;37.08;20.35;;;6.30;70.80;;;;;;4890582;29;20579;-71
2021/03/01 04:54:51;;;;;;;39.03;19.52;;;6.30;70.90;;;;;;4907302;29;20028;-71
2021/03/01 04:57:19;;;;;;;34.70;19.33;;;6.30;70.90;;;;;;4907168;29;20350;-71
2021/03/01 04:59:46;;;;;;;38.65;20.20;;;6.30;71.00;;;;;;4906345;29;20037;-71
2021/03/01 05:02:13;;;;;;;41.20;21.30;;;6.30;71.30;;;;;;4906100;29;20025;-71
2021/03/01 05:04:40;;;;;;;40.63;20.83;;;6.20;71.50;;;;;;4907378;29;20028;-71
2021/03/01 05:07:07;;;;;;;38.03;20.52;;;6.30;71.30;;;;;;4907036;29;20028;-71
2021/03/01 05:09:35;;;;;;;;;;;6.30;71.40;;;;;;4888394;29;20178;-71
2021/03/01 05:12:00;;;;;;;35.40;19.63;;;6.30;71.40;;;;;;4890683;29;19908;-71
2021/03/01 05:14:26;;;;;;;35.30;18.75;;;6.30;71.30;;;;;;4875249;29;20105;-71
2021/03/01 05:16:52;;;;;;;36.75;19.77;;;6.30;71.20;;;;;;4902945;29;20304;-72
2021/03/01 05:19:18;;;;;;;45.75;20.30;;;6.40;70.90;;;;;;4909160;29;20040;-72
2021/03/01 05:21:43;;;;;;;37.33;20.23;;;6.40;70.90;;;;;;4910291;29;20039;-72
2021/03/01 05:24:09;;;;;;;36.70;19.15;;;6.40;70.80;;;;;;4909393;29;20024;-72
2021/03/01 05:26:35;;;;;;;47.72;20.30;;;6.40;70.70;;;;;;4907901;29;20035;-72
2021/03/01 05:29:03;;;;;;;34.42;18.23;;;6.20;71.00;;;;;;4890315;29;20108;-72
2021/03/01 05:31:28;;;;;;;38.25;18.48;;;6.30;71.10;;;;;;4891259;29;20041;-72
2021/03/01 05:33:54;;;;;;;41.03;19.92;;;6.30;71.00;;;;;;4891672;29;20237;-72
2021/03/01 05:36:20;;;;;;;33.20;18.10;;;6.30;70.90;;;;;;4890460;29;20029;-72
2021/03/01 05:38:46;;;;;;;38.05;19.48;;;6.30;70.90;;;;;;4891386;29;20040;-72
2021/03/01 05:41:12;;;;;;;40.47;19.63;;;6.30;71.00;;;;;;4891344;29;20056;-72
2021/03/01 05:43:38;;;;;;;36.33;19.25;;;6.30;71.00;;;;;;4874809;29;20037;-72
2021/03/01 05:46:04;;;;;;;35.78;19.88;;;6.30;70.90;;;;;;4896268;29;20092;-72
2021/03/01 05:48:30;;;;;;;37.88;18.85;;;6.30;70.90;;;;;;4909011;29;20108;-72
2021/03/01 05:51:03;;;;;;;43.90;20.70;;;6.30;70.70;;;;;;4909798;29;20053;-72
2021/03/01 05:53:40;;;;;;;38.75;19.25;;;6.30;70.80;;;;;;4908759;29;20401;-72
2021/03/01 05:56:07;;;;;;;34.85;20.42;;;6.40;70.70;;;;;;4882610;29;20049;-72
2021/03/01 05:58:34;;;;;;;37.15;19.30;;;6.40;70.70;;;;;;4877443;29;20025;-72
2021/03/01 06:01:04;;;;;;;42.95;20.40;;;6.40;70.60;;;;;;4881071;29;20304;-72
2021/03/01 06:03:31;;;;;;;40.40;19.73;;;6.40;70.40;;;;;;4871484;29;20284;-71
2021/03/01 06:05:58;;;;;;;35.53;17.95;;;6.40;70.50;;;;;;4883712;29;20125;-72
2021/03/01 06:08:24;;;;;;;34.45;19.55;;;6.30;70.70;;;;;;4880892;29;20045;-72
2021/03/01 06:10:56;;;;;;;37.33;18.05;;;6.30;70.80;;;;;;4867905;29;20085;-72
2021/03/01 06:13:23;;;;;;;31.40;17.75;;;6.30;70.80;;;;;;4882138;29;20024;-71
2021/03/01 06:15:49;;;;;;;36.47;17.88;;;6.20;71.30;;;;;;4866038;29;20045;-72
2021/03/01 06:18:15;;;;;;;38.67;18.25;;;6.20;71.50;;;;;;4868707;29;20328;-72
2021/03/01 06:20:42;;;;;;;34.63;19.20;;;6.20;71.60;;;;;;4884925;29;20037;-72
2021/03/01 06:23:07;;;;;;;;;;;6.30;71.60;;;;;;4883878;29;20212;-72
2021/03/01 06:25:33;;;;;;;41.40;17.47;;;6.30;71.60;;;;;;4887778;29;19919;-72
2021/03/01 06:28:00;;;;;;;35.63;20.10;;;6.20;71.50;;;;;;4887121;29;20037;-72
2021/03/01 06:30:30;;;;;;;;;;;6.30;71.50;;;;;;4900714;29;20072;-72
2021/03/01 06:33:08;;;;;;;34.17;18.23;;;6.40;71.40;;;;;;4887465;29;19955;-72
2021/03/01 06:35:40;;;;;;;39.75;19.45;;;6.30;71.60;;;;;;4891331;29;20021;-71
2021/03/01 06:38:23;;;;;;;36.33;19.25;;;6.30;71.70;;;;;;4879596;29;20053;-72
2021/03/01 06:41:07;;;;;;;40.22;20.67;;;6.40;71.80;;;;;;4885530;29;20023;-72
2021/03/01 06:43:33;;;;;;;35.00;18.42;;;6.40;71.80;;;;;;4884003;29;20040;-72
2021/03/01 06:46:10;;;;;;;46.55;20.70;;;6.40;71.90;;;;;;4886283;29;20028;-71
2021/03/01 06:48:36;;;;;;;36.67;20.27;;;6.30;72.20;;;;;;4884648;29;20076;-72
2021/03/01 06:51:02;;;;;;;34.45;19.48;;;6.40;72.10;;;;;;4871059;29;20029;-72
2021/03/01 06:53:28;;;;;;;36.33;19.05;;;6.40;72.00;;;;;;4886600;29;20382;-73
2021/03/01 06:56:05;;;;;;;36.60;20.38;;;6.50;71.90;;;;;;4884857;29;20044;-73
2021/03/01 06:58:39;;;;;;;41.40;21.00;;;6.40;72.00;;;;;;4874504;29;20037;-73
2021/03/01 07:01:18;;;;;;;44.13;21.17;;;6.30;72.30;;;;;;4883377;29;20024;-73
2021/03/01 07:03:49;;;;;;;39.40;19.10;;;6.40;72.20;;;;;;4882889;29;20033;-75
2021/03/01 07:06:15;;;;;;;37.30;20.42;;;6.50;72.20;;;;;;4880254;29;20021;-74
2021/03/01 07:08:54;;;;;;;36.25;19.65;;;6.60;71.80;;;;;;4883201;29;20040;-74
2021/03/01 07:11:28;;;;;;;44.28;20.67;;;6.50;71.60;;;;;;4884717;29;20032;-74
2021/03/01 07:14:04;;;;;;;41.08;21.10;;;6.60;71.50;;;;;;4882876;29;20069;-74
2021/03/01 07:16:49;;;;;;;37.38;19.90;;;6.80;71.40;;;;;;4883601;29;20024;-74
2021/03/01 07:19:21;;;;;;;42.13;21.08;;;6.80;71.20;;;;;;4884539;29;20096;-74
2021/03/01 07:21:52;;;;;;;46.28;21.60;;;6.90;71.00;;;;;;4883811;29;20064;-74
2021/03/01 07:24:25;;;;;;;38.33;21.00;;;7.00;70.90;;;;;;4878352;29;20024;-73
2021/03/01 07:26:56;;;;;;;40.60;20.88;;;7.00;70.90;;;;;;4884085;29;20051;-74
2021/03/01 07:29:23;;;;;;;43.33;21.52;;;7.10;70.70;;;;;;4875554;29;20056;-73
2021/03/01 07:32:03;;;;;;;35.67;20.13;;;7.20;70.60;;;;;;4879887;29;20028;-73
2021/03/01 07:34:30;;;;;;;41.30;23.95;;;7.20;70.50;;;;;;4880812;29;20073;-73
2021/03/01 07:37:00;;;;;;;55.53;24.90;;;7.40;70.40;;;;;;4868826;29;20220;-73
2021/03/01 07:39:28;;;;;;;45.92;23.40;;;7.40;70.70;;;;;;4885854;29;20327;-73
2021/03/01 07:41:55;;;;;;;40.33;23.13;;;7.40;71.00;;;;;;4882802;29;20029;-73
2021/03/01 07:44:29;;;;;;;45.08;23.95;;;7.40;71.20;;;;;;4877774;29;20096;-74
2021/03/01 07:46:56;;;;;;;45.85;24.60;;;7.40;71.60;;;;;;4888652;29;20342;-74
2021/03/01 07:49:38;;;;;;;;;;;7.50;71.80;;;;;;4885478;29;20121;-75
2021/03/01 07:52:05;;;;;;;49.72;24.30;;;7.60;71.50;;;;;;4878875;29;19920;-75
2021/03/01 07:54:58;;;;;;;42.93;23.93;;;7.60;71.50;;;;;;4881014;29;20025;-73
2021/03/01 07:57:29;;;;;;;47.08;25.30;;;7.70;71.20;;;;;;4881105;29;20606;-74
2021/03/01 07:59:57;;;;;;;49.97;26.10;;;7.80;71.40;;;;;;4885557;29;20071;-74
2021/03/01 08:02:28;;;;;;;46.47;25.13;;;7.80;71.30;;;;;;4897675;29;20045;-75
2021/03/01 08:04:58;;;;;;;53.00;25.65;;;7.90;71.60;;;;;;4886461;29;20085;-75
2021/03/01 08:07:38;;;;;;;52.17;26.00;;;7.90;71.70;;;;;;4849473;29;20240;-75
2021/03/01 08:10:06;;;;;;;56.20;26.30;;;8.00;71.90;;;;;;4885087;29;20033;-75
2021/03/01 08:12:32;;;;;;;48.85;25.05;;;7.90;72.20;;;;;;4896589;29;20024;-75
2021/03/01 08:15:00;;;;;;;49.28;26.60;;;7.90;72.40;;;;;;4871686;29;20045;-75
2021/03/01 08:17:25;;;;;;;55.78;26.95;;;7.90;72.60;;;;;;4866958;29;20320;-75
2021/03/01 08:20:14;;;;;;;56.63;27.30;;;7.90;72.80;;;;;;4863041;29;20029;-74
2021/03/01 08:23:10;;;;;;;67.53;30.15;;;7.90;73.30;;;;;;4791122;29;20111;-75
2021/03/01 08:25:46;;;;;;;62.15;28.25;;;8.00;73.10;;;;;;4770546;30;20078;-75
2021/03/01 08:28:17;;;;;;;56.08;28.27;;;8.00;73.10;;;;;;4776719;30;20044;-76
2021/03/01 08:30:45;;;;;;;62.10;30.65;;;8.00;73.10;;;;;;4776284;30;20103;-75
2021/03/01 08:33:10;;;;;;;61.47;30.38;;;8.00;73.10;;;;;;4776194;30;20036;-74
2021/03/01 08:35:43;;;;;;;59.08;29.90;;;8.20;73.00;;;;;;4798067;29;20038;-75
2021/03/01 08:38:11;;;;;;;61.13;30.38;;;8.30;72.80;;;;;;4791977;29;20043;-75
2021/03/01 08:40:53;;;;;;;63.10;30.60;;;8.40;72.20;;;;;;4795485;29;20038;-75
2021/03/01 08:43:34;;;;;;;67.78;30.25;;;8.50;72.00;;;;;;4779104;29;20120;-75
2021/03/01 08:46:00;;;;;;;56.55;29.35;;;8.30;72.00;;;;;;4793933;29;20075;-74
2021/03/01 08:48:26;;;;;;;72.07;30.27;;;8.40;72.00;;;;;;4794062;30;20517;-74
2021/03/01 08:50:53;;;;;;;59.90;29.60;;;8.30;72.10;;;;;;4798433;29;20342;-74
2021/03/01 08:53:32;;;;;;;61.95;28.67;;;8.30;71.80;;;;;;4799241;29;20378;-74
2021/03/01 08:55:59;;;;;;;58.47;31.50;;;8.50;71.90;;;;;;4799885;29;20228;-75
2021/03/01 08:58:30;;;;;;;56.17;28.63;;;8.60;71.70;;;;;;4799517;29;20058;-75
2021/03/01 09:01:03;;;;;;;58.13;29.65;;;8.50;71.80;;;;;;4880768;29;20037;-74
2021/03/01 09:03:34;;;;;;;57.00;29.63;;;8.60;71.50;;;;;;4883619;29;20033;-75
2021/03/01 09:06:20;;;;;;;68.32;28.48;;;8.70;71.50;;;;;;4880299;29;20029;-75
2021/03/01 09:08:50;;;;;;;68.00;30.63;;;8.70;71.40;;;;;;4874565;29;20108;-74
2021/03/01 09:11:18;;;;;;;60.95;29.70;;;8.70;71.20;;;;;;4886227;29;20029;-74
2021/03/01 09:13:46;;;;;;;56.28;29.23;;;8.70;71.10;;;;;;4887078;29;20033;-75
2021/03/01 09:16:13;;;;;;;61.13;30.60;;;8.80;71.00;;;;;;4896709;29;20055;-74
2021/03/01 09:18:39;;;;;;;;;;;8.80;70.60;;;;;;4895630;29;20045;-76
2021/03/01 09:21:06;;;;;;;55.28;28.75;;;8.80;71.40;;;;;;4890511;29;19925;-75
2021/03/01 09:23:41;;;;;;;57.08;28.25;;;8.90;71.40;;;;;;4887880;29;20228;-74
2021/03/01 09:26:16;;;;;;;55.47;29.75;;;8.90;71.10;;;;;;4884890;29;20037;-74
2021/03/01 09:28:42;;;;;;;53.90;29.90;;;8.80;71.00;;;;;;4887151;29;20033;-75
2021/03/01 09:31:11;;;;;;;54.95;30.00;;;8.90;71.40;;;;;;4890283;29;20028;-74
2021/03/01 09:33:38;;;;;;;52.05;28.05;;;8.90;71.40;;;;;;4897025;29;20293;-75
2021/03/01 09:36:06;;;;;;;55.83;29.08;;;9.10;70.90;;;;;;4871715;29;20229;-75
2021/03/01 09:38:32;;;;;;;49.50;26.17;;;9.20;70.30;;;;;;4883570;29;20120;-74
2021/03/01 09:41:09;;;;;;;53.20;27.90;;;9.30;69.90;;;;;;4887188;29;20253;-75
2021/03/01 09:43:37;;;;;;;53.47;27.67;;;9.30;69.80;;;;;;4888783;29;20041;-76
2021/03/01 09:46:04;;;;;;;50.15;28.73;;;9.30;69.90;;;;;;4894002;29;20350;-76
2021/03/01 09:48:54;;;;;;;50.25;27.70;;;9.40;69.20;;;;;;4880308;29;20040;-76
2021/03/01 09:51:21;;;;;;;46.33;27.88;;;9.40;69.20;;;;;;4889951;29;20321;-75
2021/03/01 09:53:48;;;;;;;52.15;27.92;;;9.50;69.00;;;;;;4888477;29;20312;-75
2021/03/01 09:56:14;;;;;;;50.08;28.90;;;9.50;69.10;;;;;;4888309;29;20025;-75
2021/03/01 09:58:41;;;;;;;49.63;27.00;;;9.60;68.60;;;;;;4882988;29;20031;-75
2021/03/01 10:01:14;;;;;;;48.05;26.92;;;9.50;68.10;;;;;;4882744;29;20028;-74
2021/03/01 10:03:49;;;;;;;53.78;28.15;;;9.60;68.80;;;;;;4886217;29;20305;-75
2021/03/01 10:06:28;;;;;;;54.15;27.95;;;9.60;68.10;;;;;;4887257;29;20112;-75
2021/03/01 10:09:05;;;;;;;49.80;28.13;;;9.60;67.90;;;;;;4886665;29;20116;-75
2021/03/01 10:11:31;;;;;;;56.17;27.95;;;9.50;68.00;;;;;;4878861;29;20084;-74
2021/03/01 10:14:05;;;;;;;48.30;27.27;;;9.30;68.00;;;;;;4886333;29;20033;-74
2021/03/01 10:16:34;;;;;;;55.30;27.23;;;9.40;68.90;;;;;;4885431;29;20044;-75
2021/03/01 10:19:14;;;;;;;51.60;28.05;;;9.40;68.20;;;;;;4887867;29;20040;-74
2021/03/01 10:21:40;;;;;;;53.38;29.30;;;9.50;68.10;;;;;;4870236;29;20070;-75
2021/03/01 10:24:08;;;;;;;53.67;28.92;;;9.60;67.70;;;;;;4886301;29;20335;-75
2021/03/01 10:26:53;;;;;;;46.08;26.27;;;9.60;68.30;;;;;;4887979;29;20032;-74
2021/03/01 10:29:32;;;;;;;53.42;27.65;;;9.70;68.20;;;;;;4888018;29;20028;-74
2021/03/01 10:31:59;;;;;;;52.03;27.38;;;10.00;67.30;;;;;;4886866;29;20077;-75
2021/03/01 10:34:40;;;;;;;58.38;28.83;;;10.10;67.40;;;;;;4882756;29;20067;-75
2021/03/01 10:37:10;;;;;;;57.80;29.95;;;10.30;66.50;;;;;;4895229;29;20048;-75
2021/03/01 10:39:38;;;;;;;59.42;28.55;;;10.30;66.00;;;;;;4889510;29;20027;-74
2021/03/01 10:42:12;;;;;;;56.42;28.15;;;10.20;66.20;;;;;;4889573;29;20025;-75
2021/03/01 10:44:53;;;;;;;59.88;27.98;;;10.10;67.00;;;;;;4903636;29;20040;-75
2021/03/01 10:47:33;;;;;;;54.83;26.70;;;10.30;66.80;;;;;;4891637;29;20112;-75
2021/03/01 10:50:18;;;;;;;50.85;27.27;;;10.40;66.10;;;;;;4879184;29;20029;-74
2021/03/01 10:52:43;;;;;;;46.10;26.85;;;10.30;66.00;;;;;;4877569;29;20029;-74
2021/03/01 10:55:09;;;;;;;55.53;27.75;;;10.40;65.50;;;;;;4896343;29;20103;-74
2021/03/01 10:57:35;;;;;;;51.70;26.63;;;10.40;66.00;;;;;;4888174;29;20059;-74
2021/03/01 11:00:01;;;;;;;55.05;27.05;;;10.60;65.50;;;;;;4888539;29;20060;-75
2021/03/01 11:02:27;;;;;;;49.38;28.30;;;10.70;65.50;;;;;;4886631;29;20336;-75
2021/03/01 11:04:52;;;;;;;49.17;27.10;;;10.80;64.50;;;;;;4888058;29;20025;-74
2021/03/01 11:07:19;;;;;;;48.85;27.00;;;10.60;63.90;;;;;;4884926;29;20041;-75
2021/03/01 11:09:45;;;;;;;55.78;27.20;;;10.70;64.60;;;;;;4892166;29;20024;-74
2021/03/01 11:12:11;;;;;;;44.17;23.70;;;10.60;64.50;;;;;;4896009;29;20032;-75
2021/03/01 11:14:37;;;;;;;47.20;25.90;;;10.60;64.00;;;;;;4889660;29;20056;-75
2021/03/01 11:17:04;;;;;;;51.33;27.90;;;10.70;64.20;;;;;;4900411;29;20084;-75
2021/03/01 11:19:30;;;;;;;46.03;26.05;;;10.90;64.20;;;;;;4872721;29;20274;-75
2021/03/01 11:21:55;;;;;;;51.08;25.65;;;10.70;63.70;;;;;;4888116;29;20043;-75
2021/03/01 11:24:22;;;;;;;46.05;27.00;;;10.90;63.80;;;;;;4877868;29;20092;-75
2021/03/01 11:26:50;;;;;;;47.20;25.30;;;10.60;63.80;;;;;;4883696;29;20051;-75
2021/03/01 11:29:16;;;;;;;47.65;27.45;;;10.80;64.00;;;;;;4888380;29;20333;-76
2021/03/01 11:31:42;;;;;;;53.47;28.38;;;10.90;64.10;;;;;;4889478;29;20040;-75
2021/03/01 11:34:08;;;;;;;46.92;26.65;;;11.10;63.70;;;;;;4869514;29;20043;-74
2021/03/01 11:36:35;;;;;;;45.38;27.25;;;11.10;62.60;;;;;;4870370;29;20037;-75
2021/03/01 11:39:01;;;;;;;45.53;24.27;;;11.20;63.20;;;;;;4870292;29;20053;-75
2021/03/01 11:41:27;;;;;;;43.67;25.45;;;11.30;62.90;;;;;;4884178;29;20055;-74
2021/03/01 11:43:53;;;;;;;44.92;25.02;;;11.30;62.90;;;;;;4889247;29;20085;-75
2021/03/01 11:46:19;;;;;;;53.28;27.10;;;11.40;62.50;;;;;;4896419;29;20044;-74
2021/03/01 11:48:47;;;;;;;46.13;26.65;;;11.40;62.20;;;;;;4906708;29;20100;-74
2021/03/01 11:51:12;;;;;;;50.00;25.33;;;11.30;62.80;;;;;;4906680;29;20036;-75
2021/03/01 11:53:40;;;;;;;50.40;25.88;;;11.40;62.70;;;;;;4896766;29;20249;-74
2021/03/01 11:56:07;;;;;;;52.22;26.67;;;11.50;62.50;;;;;;4884713;29;20216;-75
2021/03/01 11:58:34;;;;;;;43.05;25.15;;;11.40;62.70;;;;;;4880892;29;20041;-74
2021/03/01 12:01:00;;;;;;;;;;;11.30;62.20;;;;;;4883345;29;20037;-74
2021/03/01 12:03:26;;;;;;;47.80;26.17;;;11.40;63.30;;;;;;4878250;29;19914;-74
2021/03/01 12:05:52;;;;;;;45.47;24.38;;;11.40;62.40;;;;;;4882173;29;20058;-74
2021/03/01 12:08:17;;;;;;;50.15;26.35;;;11.40;62.50;;;;;;4883322;29;20025;-74
2021/03/01 12:10:43;;;;;;;49.35;24.27;;;11.40;62.90;;;;;;4888962;29;20028;-74
2021/03/01 12:13:09;;;;;;;49.03;25.75;;;11.40;62.70;;;;;;4891025;29;20040;-74
2021/03/01 12:15:34;;;;;;;47.17;25.23;;;11.20;63.10;;;;;;4889015;29;20032;-74
2021/03/01 12:18:00;;;;;;;48.63;24.88;;;11.40;63.10;;;;;;4890731;29;20033;-75
2021/03/01 12:20:27;;;;;;;41.60;25.67;;;11.50;62.90;;;;;;4896710;29;20031;-74
2021/03/01 12:22:52;;;;;;;42.67;22.67;;;11.60;63.00;;;;;;4904851;29;20060;-74
2021/03/01 12:25:18;;;;;;;50.17;25.30;;;11.60;62.40;;;;;;4885280;29;20029;-74
2021/03/01 12:27:44;;;;;;;44.78;23.90;;;11.50;62.60;;;;;;4882161;29;20072;-75
2021/03/01 12:30:11;;;;;;;42.25;23.15;;;11.50;62.80;;;;;;4886974;29;20040;-74
2021/03/01 12:32:37;;;;;;;44.40;24.38;;;11.60;62.90;;;;;;4872529;29;20037;-74
2021/03/01 12:35:04;;;;;;;41.45;22.98;;;11.70;62.20;;;;;;4890631;29;20097;-74
2021/03/01 12:37:29;;;;;;;40.83;23.70;;;11.60;62.20;;;;;;4892156;29;20395;-73
2021/03/01 12:39:56;;;;;;;40.15;21.13;;;11.70;62.10;;;;;;4892095;29;20029;-74
2021/03/01 12:42:22;;;;;;;44.30;22.87;;;11.70;62.10;;;;;;4892150;29;20025;-74
2021/03/01 12:44:48;;;;;;;38.38;23.30;;;11.80;62.70;;;;;;4892325;29;20364;-74
2021/03/01 12:47:14;;;;;;;35.78;20.98;;;11.80;62.10;;;;;;4883546;29;20053;-74
2021/03/01 12:49:40;;;;;;;41.05;21.67;;;11.90;61.80;;;;;;4878921;29;20040;-74
2021/03/01 12:52:06;;;;;;;37.35;21.23;;;12.00;61.40;;;;;;4879513;29;20076;-75
2021/03/01 12:54:31;;;;;;;38.25;21.27;;;11.80;61.40;;;;;;4891088;29;20082;-74
2021/03/01 12:57:10;;;;;;;32.42;20.10;;;12.00;61.50;;;;;;4887152;29;20029;-76
2021/03/01 12:59:36;;;;;;;38.90;22.25;;;12.00;61.50;;;;;;4871355;29;20040;-75
2021/03/01 13:02:05;;;;;;;44.80;23.73;;;12.10;61.50;;;;;;4892014;29;20300;-75
2021/03/01 13:04:32;;;;;;;38.53;22.85;;;12.10;61.30;;;;;;4890679;29;20040;-74
2021/03/01 13:06:58;;;;;;;39.97;23.33;;;12.10;61.30;;;;;;4890888;29;20033;-75
2021/03/01 13:09:24;;;;;;;37.95;22.27;;;12.00;61.70;;;;;;4883845;29;20033;-76
2021/03/01 13:11:50;;;;;;;43.97;23.25;;;12.10;61.30;;;;;;4884211;29;20374;-76
2021/03/01 13:14:16;;;;;;;39.60;22.42;;;12.20;61.10;;;;;;4890514;29;20025;-75
2021/03/01 13:16:41;;;;;;;37.92;22.75;;;12.20;61.10;;;;;;4901614;29;20036;-74
2021/03/01 13:19:07;;;;;;;42.63;23.85;;;12.00;60.80;;;;;;4903875;29;20043;-75
2021/03/01 13:21:33;;;;;;;48.38;24.52;;;11.90;61.40;;;;;;4891172;29;20029;-76
2021/03/01 13:23:59;;;;;;;48.33;25.50;;;11.90;61.00;;;;;;4882517;29;20116;-76
2021/03/01 13:26:25;;;;;;;39.45;22.45;;;12.00;61.50;;;;;;4865885;29;20033;-76
2021/03/01 13:28:51;;;;;;;38.35;22.45;;;12.00;61.20;;;;;;4880570;29;20033;-76
2021/03/01 13:31:16;;;;;;;39.35;22.35;;;12.00;61.10;;;;;;4877157;29;20061;-76
2021/03/01 13:33:43;;;;;;;42.38;23.42;;;11.90;61.70;;;;;;4880407;29;20025;-75
2021/03/01 13:36:09;;;;;;;;;;;12.00;61.30;;;;;;4879100;29;20316;-76
2021/03/01 13:38:35;;;;;;;43.30;21.57;;;11.90;62.00;;;;;;4871311;29;19912;-75
2021/03/01 13:41:01;;;;;;;42.33;22.88;;;12.00;61.60;;;;;;4878094;29;20350;-75
2021/03/01 13:43:27;;;;;;;39.33;23.17;;;11.90;61.40;;;;;;4880823;29;20044;-75
2021/03/01 13:45:53;;;;;;;38.78;21.25;;;12.00;61.50;;;;;;4872281;29;20204;-76
2021/03/01 13:48:19;;;;;;;34.72;21.00;;;12.10;61.30;;;;;;4879346;29;20064;-75
2021/03/01 13:50:45;;;;;;;35.40;20.50;;;12.10;61.10;;;;;;4885133;29;20028;-75
2021/03/01 13:53:10;;;;;;;38.85;21.27;;;12.00;61.30;;;;;;4881790;29;20066;-75
2021/03/01 13:55:36;;;;;;;42.65;22.60;;;11.80;61.30;;;;;;4872183;29;20103;-75
2021/03/01 13:58:02;;;;;;;38.67;21.00;;;11.90;61.60;;;;;;4881722;29;20040;-75
2021/03/01 14:00:27;;;;;;;38.40;20.90;;;12.00;61.50;;;;;;4878987;29;20074;-75
2021/03/01 14:02:53;;;;;;;35.45;20.27;;;12.20;61.50;;;;;;4890447;29;20040;-75
2021/03/01 14:05:19;;;;;;;32.30;21.00;;;12.20;61.80;;;;;;4890221;29;20194;-75
2021/03/01 14:07:44;;;;;;;37.08;21.75;;;12.30;61.60;;;;;;4886791;29;20041;-75
2021/03/01 14:10:11;;;;;;;37.13;21.13;;;12.40;61.30;;;;;;4881726;29;20048;-76
2021/03/01 14:12:38;;;;;;;33.80;20.98;;;12.40;60.90;;;;;;4891731;29;20323;-75
2021/03/01 14:15:05;;;;;;;42.40;22.33;;;12.40;61.20;;;;;;4889326;29;20124;-75
2021/03/01 14:17:31;;;;;;;36.08;20.77;;;12.40;60.90;;;;;;4896221;29;20055;-75
2021/03/01 14:19:57;;;;;;;39.05;22.55;;;12.50;61.00;;;;;;4898273;29;20061;-75
2021/03/01 14:22:23;;;;;;;39.42;22.95;;;12.30;61.30;;;;;;4900295;29;20096;-75
2021/03/01 14:24:49;;;;;;;36.08;20.92;;;12.30;61.40;;;;;;4889585;29;20040;-75
2021/03/01 14:27:15;;;;;;;41.50;22.60;;;12.40;61.10;;;;;;4898716;29;20033;-75
2021/03/01 14:29:41;;;;;;;41.90;23.80;;;12.30;61.10;;;;;;4890213;29;20032;-76
2021/03/01 14:32:07;;;;;;;41.75;21.77;;;12.30;61.60;;;;;;4890384;29;20033;-75
2021/03/01 14:34:33;;;;;;;41.65;23.55;;;12.30;61.60;;;;;;4894672;29;20244;-75
2021/03/01 14:36:59;;;;;;;37.15;21.48;;;12.20;61.60;;;;;;4897297;29;20040;-75
2021/03/01 14:39:25;;;;;;;35.35;21.27;;;12.30;62.00;;;;;;4898107;29;20095;-78
2021/03/01 14:41:51;;;;;;;38.40;21.92;;;12.40;61.70;;;;;;4896793;29;20025;-75
2021/03/01 14:44:17;;;;;;;40.00;23.38;;;12.40;61.90;;;;;;4890041;29;20028;-76
2021/03/01 14:46:43;;;;;;;43.70;23.00;;;12.20;62.00;;;;;;4897976;29;20053;-75
2021/03/01 14:49:08;;;;;;;38.60;22.38;;;12.40;61.90;;;;;;4891195;29;20201;-75
2021/03/01 14:51:35;;;;;;;42.40;23.17;;;12.50;62.40;;;;;;4900799;29;20040;-75
2021/03/01 14:54:00;;;;;;;39.43;22.60;;;12.60;61.80;;;;;;4898764;29;20201;-75
2021/03/01 14:56:27;;;;;;;43.85;23.98;;;12.60;61.60;;;;;;4888451;29;20096;-76
2021/03/01 14:58:52;;;;;;;32.30;20.90;;;12.70;61.40;;;;;;4888818;29;20043;-75
2021/03/01 15:01:18;;;;;;;38.88;22.17;;;12.70;61.20;;;;;;4871897;29;20381;-75
2021/03/01 15:03:44;;;;;;;39.47;21.63;;;12.70;61.50;;;;;;4882847;29;20060;-75
2021/03/01 15:06:10;;;;;;;45.70;22.63;;;12.70;61.30;;;;;;4881894;29;20230;-75
2021/03/01 15:08:35;;;;;;;39.70;21.55;;;12.70;61.40;;;;;;4886793;29;20040;-76
2021/03/01 15:11:02;;;;;;;38.00;21.75;;;12.60;61.80;;;;;;4883365;29;20041;-74
2021/03/01 15:13:36;;;;;;;37.30;21.02;;;12.70;61.80;;;;;;4884094;29;20050;-74
2021/03/01 15:16:03;;;;;;;39.65;22.65;;;12.80;61.60;;;;;;4882940;29;20047;-75
2021/03/01 15:18:29;;;;;;;35.50;20.30;;;12.80;61.40;;;;;;4876959;29;20029;-75
2021/03/01 15:20:56;;;;;;;37.93;21.17;;;12.80;61.30;;;;;;4880635;29;20021;-74
2021/03/01 15:23:22;;;;;;;31.67;19.55;;;12.90;61.50;;;;;;4863831;29;20212;-74
2021/03/01 15:25:51;;;;;;;36.85;19.30;;;12.90;61.40;;;;;;4877237;29;20129;-74
2021/03/01 15:28:17;;;;;;;33.47;19.85;;;12.90;61.20;;;;;;4883961;29;20101;-74
2021/03/01 15:30:43;;;;;;;41.30;20.03;;;12.80;61.40;;;;;;4865896;29;20041;-75
2021/03/01 15:33:09;;;;;;;36.88;20.13;;;12.80;61.40;;;;;;4882061;29;20121;-74
2021/03/01 15:35:35;;;;;;;34.88;19.48;;;12.70;61.70;;;;;;4870831;29;20224;-75
2021/03/01 15:38:01;;;;;;;31.92;18.88;;;12.70;61.90;;;;;;4886816;29;20332;-73
2021/03/01 15:40:28;;;;;;;30.88;19.52;;;12.80;61.70;;;;;;4887824;29;20197;-74
2021/03/01 15:42:54;;;;;;;34.47;19.55;;;12.70;61.70;;;;;;4884378;29;20332;-74
2021/03/01 15:45:20;;;;;;;37.90;20.40;;;12.70;61.90;;;;;;4884828;29;20028;-74
2021/03/01 15:47:45;;;;;;;37.72;20.90;;;12.70;61.90;;;;;;4889818;29;20102;-74
2021/03/01 15:50:12;;;;;;;39.42;20.55;;;12.60;62.00;;;;;;4880416;29;20359;-75
2021/03/01 15:52:37;;;;;;;31.73;19.73;;;12.70;61.90;;;;;;4876212;29;20340;-75
2021/03/01 15:55:05;;;;;;;35.55;19.27;;;12.70;61.90;;;;;;4881343;29;20072;-74
2021/03/01 15:57:31;;;;;;;40.75;20.08;;;12.70;61.90;;;;;;4896697;29;20039;-74
2021/03/01 16:00:00;;;;;;;43.70;20.48;;;12.60;62.00;;;;;;4879166;29;20055;-75
2021/03/01 16:02:26;;;;;;;41.10;20.63;;;12.50;62.20;;;;;;4880495;29;20297;-74
2021/03/01 16:04:52;;;;;;;37.97;20.25;;;12.40;62.50;;;;;;4866354;29;20048;-73
2021/03/01 16:07:17;;;;;;;34.67;20.98;;;12.50;62.50;;;;;;4879563;29;20037;-74
2021/03/01 16:09:44;;;;;;;36.95;21.08;;;12.40;62.60;;;;;;4884072;29;20029;-75
2021/03/01 16:12:10;;;;;;;40.10;21.70;;;12.30;62.80;;;;;;4883375;29;20028;-74
2021/03/01 16:14:35;;;;;;;36.95;21.08;;;12.20;63.00;;;;;;4883305;29;20021;-75
2021/03/01 16:17:01;;;;;;;40.70;21.27;;;12.20;63.10;;;;;;4890481;29;20037;-76
2021/03/01 16:19:27;;;;;;;44.10;24.27;;;12.20;63.20;;;;;;4884773;29;20052;-76
2021/03/01 16:21:53;;;;;;;38.53;22.77;;;12.10;63.20;;;;;;4881717;29;20029;-74
2021/03/01 16:24:19;;;;;;;36.83;22.95;;;12.10;63.40;;;;;;4879465;29;20522;-74
2021/03/01 16:26:50;;;;;;;40.08;22.67;;;12.10;63.50;;;;;;4888048;29;20173;-74